createdAt,value
2017-06-14T00:01:14.656Z,7.33
2017-06-14T00:03:43.016Z,6.60
2017-06-14T00:06:11.287Z,6.00
2017-06-14T00:08:40.715Z,7.00
2017-06-14T00:11:10.394Z,10.67
2017-06-14T00:13:38.557Z,6.67
2017-06-14T00:16:06.840Z,6.67
2017-06-14T00:18:35.187Z,6.70
2017-06-14T00:21:03.867Z,9.13
2017-06-14T00:23:32.907Z,7.60
2017-06-14T00:26:02.599Z,6.90
2017-06-14T00:28:31.183Z,6.70
2017-06-14T00:30:59.495Z,5.37
2017-06-14T00:33:27.851Z,10.57
2017-06-14T00:35:56.163Z,7.07
2017-06-14T00:38:25.601Z,5.73
2017-06-14T00:40:53.931Z,9.53
2017-06-14T00:43:22.228Z,12.80
2017-06-14T00:45:50.515Z,6.20
2017-06-14T00:48:18.840Z,9.20
2017-06-14T00:50:47.143Z,7.40
2017-06-14T00:53:16.204Z,7.57
2017-06-14T00:55:44.572Z,5.97
2017-06-14T00:58:13.619Z,5.50
2017-06-14T01:00:42.687Z,9.70
2017-06-14T01:03:10.989Z,5.97
2017-06-14T01:05:39.249Z,5.20
2017-06-14T01:08:07.498Z,6.23
2017-06-14T01:10:35.798Z,6.70
2017-06-14T01:13:05.190Z,7.03
2017-06-14T01:15:33.446Z,6.37
2017-06-14T01:18:03.114Z,5.20
2017-06-14T01:20:31.637Z,9.67
2017-06-14T01:22:59.926Z,5.83
2017-06-14T01:25:28.249Z,6.60
2017-06-14T01:27:56.551Z,9.07
2017-06-14T01:30:24.831Z,7.03
2017-06-14T01:32:53.323Z,5.57
2017-06-14T01:35:21.977Z,8.13
2017-06-14T01:37:50.241Z,7.30
2017-06-14T01:40:18.601Z,6.47
2017-06-14T01:42:46.910Z,7.40
2017-06-14T01:45:16.590Z,9.67
2017-06-14T01:47:45.049Z,13.17
2017-06-14T01:50:13.366Z,6.87
2017-06-14T01:52:41.642Z,7.73
2017-06-14T01:55:09.992Z,6.33
2017-06-14T01:57:38.249Z,8.30
2017-06-14T02:00:07.267Z,8.37
2017-06-14T02:02:35.569Z,8.23
2017-06-14T02:05:03.815Z,8.33
2017-06-14T02:07:32.080Z,9.13
2017-06-14T02:10:00.422Z,7.73
2017-06-14T02:12:28.709Z,8.17
2017-06-14T02:14:57.021Z,8.00
2017-06-14T02:17:26.132Z,8.47
2017-06-14T02:19:55.193Z,8.47
2017-06-14T02:22:23.458Z,9.13
2017-06-14T02:24:51.756Z,7.90
2017-06-14T02:27:20.778Z,10.73
2017-06-14T02:29:50.183Z,8.00
2017-06-14T02:32:18.978Z,7.80
2017-06-14T02:34:47.237Z,7.87
2017-06-14T02:37:15.537Z,8.83
2017-06-14T02:39:44.261Z,8.10
2017-06-14T02:42:13.321Z,7.63
2017-06-14T02:44:41.567Z,6.93
2017-06-14T02:47:09.895Z,7.73
2017-06-14T02:49:39.485Z,7.83
2017-06-14T02:52:08.009Z,8.10
2017-06-14T02:54:36.315Z,9.33
2017-06-14T02:57:04.561Z,10.33
2017-06-14T02:59:32.813Z,7.80
2017-06-14T03:02:01.130Z,7.43
2017-06-14T03:04:29.399Z,7.47
2017-06-14T03:06:58.432Z,8.40
2017-06-14T03:09:27.904Z,8.07
2017-06-14T03:11:56.581Z,7.40
2017-06-14T03:14:24.844Z,14.80
2017-06-14T03:16:53.141Z,6.77
2017-06-14T03:19:21.402Z,7.23
2017-06-14T03:21:49.653Z,7.90
2017-06-14T03:24:17.954Z,9.07
2017-06-14T03:26:47.713Z,7.93
2017-06-14T03:29:15.990Z,8.37
2017-06-14T03:31:44.321Z,9.20
2017-06-14T03:34:12.574Z,6.13
2017-06-14T03:36:42.334Z,7.77
2017-06-14T03:39:11.981Z,6.50
2017-06-14T03:41:40.879Z,5.90
2017-06-14T03:44:09.130Z,6.13
2017-06-14T03:46:37.438Z,6.83
2017-06-14T03:49:06.087Z,5.53
2017-06-14T03:51:34.337Z,7.17
2017-06-14T03:54:02.646Z,6.10
2017-06-14T03:56:30.918Z,7.10
2017-06-14T04:01:33.785Z,9.23
2017-06-14T04:04:03.392Z,6.83
2017-06-14T04:06:31.530Z,8.27
2017-06-14T04:08:59.851Z,7.83
2017-06-14T04:11:28.122Z,6.57
2017-06-14T04:13:57.933Z,7.37
2017-06-14T04:16:26.546Z,8.20
2017-06-14T04:18:54.799Z,6.87
2017-06-14T04:21:24.549Z,6.70
2017-06-14T04:23:52.866Z,6.50
2017-06-14T04:26:22.481Z,7.00
2017-06-14T04:28:51.956Z,7.53
2017-06-14T04:31:21.484Z,7.63
2017-06-14T04:33:49.613Z,7.10
2017-06-14T04:36:18.629Z,6.67
2017-06-14T04:38:46.937Z,7.90
2017-06-14T04:41:16.363Z,7.63
2017-06-14T04:43:44.625Z,8.00
2017-06-14T04:46:12.929Z,6.93
2017-06-14T04:48:41.190Z,9.17
2017-06-14T04:51:09.433Z,7.97
2017-06-14T04:53:37.737Z,7.80
2017-06-14T04:56:07.345Z,7.50
2017-06-14T04:58:35.866Z,7.40
2017-06-14T05:01:04.162Z,9.20
2017-06-14T05:03:32.430Z,8.33
2017-06-14T05:06:01.834Z,7.10
2017-06-14T05:08:30.175Z,8.23
2017-06-14T05:10:59.820Z,7.70
2017-06-14T05:13:27.995Z,6.87
2017-06-14T05:15:56.615Z,9.33
2017-06-14T05:18:26.406Z,6.37
2017-06-14T05:20:54.666Z,7.33
2017-06-14T05:23:22.977Z,5.87
2017-06-14T05:25:51.385Z,8.33
2017-06-14T05:28:19.671Z,4.80
2017-06-14T05:30:47.970Z,4.70
2017-06-14T05:33:17.001Z,5.67
2017-06-14T05:35:45.263Z,5.97
2017-06-14T05:38:13.566Z,5.60
2017-06-14T05:40:41.824Z,5.87
2017-06-14T05:43:10.065Z,5.47
2017-06-14T05:45:38.385Z,8.30
2017-06-14T05:48:06.640Z,7.50
2017-06-14T05:50:34.973Z,6.30
2017-06-14T05:53:03.689Z,4.80
2017-06-14T05:55:31.967Z,4.87
2017-06-14T05:58:00.231Z,3.97
2017-06-14T06:00:28.587Z,5.23
2017-06-14T06:02:56.947Z,4.40
2017-06-14T06:05:25.625Z,4.23
2017-06-14T06:07:54.363Z,7.13
2017-06-14T06:10:22.652Z,5.63
2017-06-14T06:12:50.934Z,6.17
2017-06-14T06:15:19.267Z,4.20
2017-06-14T06:17:48.898Z,4.50
2017-06-14T06:20:17.447Z,4.33
2017-06-14T06:22:45.778Z,6.27
2017-06-14T06:25:14.075Z,3.43
2017-06-14T06:27:42.813Z,6.67
2017-06-14T06:30:11.571Z,3.83
2017-06-14T06:32:41.367Z,5.87
2017-06-14T06:35:09.642Z,7.27
2017-06-14T06:37:37.976Z,5.07
2017-06-14T06:40:06.259Z,4.50
2017-06-14T06:42:36.048Z,6.30
2017-06-14T06:45:04.387Z,6.43
2017-06-14T06:47:32.664Z,5.37
2017-06-14T06:50:00.955Z,4.40
2017-06-14T06:52:30.443Z,9.13
2017-06-14T06:54:59.132Z,8.20
2017-06-14T06:57:27.457Z,7.20
2017-06-14T06:59:55.811Z,5.93
2017-06-14T07:02:24.079Z,5.73
2017-06-14T07:04:53.880Z,4.67
2017-06-14T07:07:22.210Z,7.30
2017-06-14T07:09:50.491Z,5.73
2017-06-14T07:12:19.159Z,4.07
2017-06-14T07:14:47.511Z,6.50
2017-06-14T07:17:15.814Z,5.67
2017-06-14T07:19:44.089Z,4.50
2017-06-14T07:22:12.407Z,8.57
2017-06-14T07:24:40.683Z,5.03
2017-06-14T07:27:08.963Z,5.13
2017-06-14T07:29:37.319Z,6.27
2017-06-14T07:32:06.358Z,4.97
2017-06-14T07:34:34.638Z,4.60
2017-06-14T07:37:02.963Z,5.87
2017-06-14T07:39:32.535Z,6.40
2017-06-14T07:42:01.214Z,3.60
2017-06-14T07:44:29.581Z,5.43
2017-06-14T07:46:57.870Z,6.73
2017-06-14T07:49:26.207Z,4.90
2017-06-14T07:51:55.354Z,4.60
2017-06-14T07:54:24.406Z,5.50
2017-06-14T07:56:53.459Z,4.30
2017-06-14T07:59:21.995Z,8.30
2017-06-14T08:01:51.399Z,5.23
2017-06-14T08:04:19.679Z,6.90
2017-06-14T08:06:48.006Z,3.80
2017-06-14T08:09:17.783Z,3.30
2017-06-14T08:11:46.107Z,3.97
2017-06-14T08:14:14.467Z,7.10
2017-06-14T08:16:42.743Z,5.33
2017-06-14T08:19:11.019Z,4.33
2017-06-14T08:21:39.344Z,8.33
2017-06-14T08:24:07.618Z,5.43
2017-06-14T08:26:37.430Z,4.50
2017-06-14T08:29:05.754Z,10.03
2017-06-14T08:31:34.812Z,3.97
2017-06-14T08:34:04.223Z,3.83
2017-06-14T08:36:32.555Z,4.20
2017-06-14T08:39:02.206Z,5.93
2017-06-14T08:41:31.532Z,5.90
2017-06-14T08:44:01.234Z,7.10
2017-06-14T08:46:29.423Z,5.00
2017-06-14T08:48:58.123Z,3.70
2017-06-14T08:51:27.343Z,5.60
2017-06-14T08:53:56.081Z,4.60
2017-06-14T08:56:24.351Z,4.83
2017-06-14T08:58:52.684Z,4.60
2017-06-14T09:01:20.960Z,3.93
2017-06-14T09:03:49.239Z,5.00
2017-06-14T09:06:17.584Z,2.80
2017-06-14T09:08:45.908Z,4.53
2017-06-14T09:11:15.396Z,2.33
2017-06-14T09:13:43.743Z,4.30
2017-06-14T09:16:12.024Z,3.13
2017-06-14T09:18:40.303Z,2.43
2017-06-14T09:21:09.019Z,6.43
2017-06-14T09:23:37.300Z,1.83
2017-06-14T09:26:06.352Z,1.83
2017-06-14T09:28:35.886Z,2.40
2017-06-14T09:31:04.180Z,2.57
2017-06-14T09:33:32.474Z,1.33
2017-06-14T09:36:00.810Z,1.70
2017-06-14T09:38:29.121Z,1.60
2017-06-14T09:40:58.658Z,3.00
2017-06-14T09:43:27.012Z,1.70
2017-06-14T09:45:55.350Z,1.40
2017-06-14T09:48:24.776Z,3.57
2017-06-14T09:50:56.631Z,1.63
2017-06-14T09:53:25.343Z,1.20
2017-06-14T09:55:53.639Z,1.30
2017-06-14T09:58:22.087Z,5.73
2017-06-14T10:00:50.754Z,1.40
2017-06-14T10:03:19.039Z,1.27
2017-06-14T10:05:47.379Z,2.30
2017-06-14T10:08:17.171Z,1.93
2017-06-14T10:10:45.464Z,1.60
2017-06-14T10:13:13.792Z,2.07
2017-06-14T10:15:42.067Z,1.90
2017-06-14T10:18:10.347Z,1.00
2017-06-14T10:20:39.075Z,1.80
2017-06-14T10:23:08.111Z,1.23
2017-06-14T10:25:36.388Z,1.20
2017-06-14T10:28:04.743Z,1.43
2017-06-14T10:30:33.028Z,0.90
2017-06-14T10:33:01.333Z,0.80
2017-06-14T10:35:30.463Z,1.40
2017-06-14T10:37:59.548Z,1.07
2017-06-14T10:40:27.857Z,0.83
2017-06-14T10:42:57.000Z,1.07
2017-06-14T10:45:26.818Z,1.77
2017-06-14T10:47:55.897Z,1.90
2017-06-14T10:50:25.067Z,1.30
2017-06-14T10:52:53.359Z,1.43
2017-06-14T10:55:21.659Z,2.03
2017-06-14T10:57:49.980Z,1.60
2017-06-14T11:00:18.259Z,1.00
2017-06-14T11:02:46.565Z,1.23
2017-06-14T11:05:14.917Z,1.27
2017-06-14T11:07:43.200Z,1.00
2017-06-14T11:10:12.635Z,0.90
2017-06-14T11:12:41.384Z,1.40
2017-06-14T11:15:10.432Z,1.43
2017-06-14T11:17:39.131Z,2.17
2017-06-14T11:20:07.458Z,1.70
2017-06-14T11:22:36.503Z,2.27
2017-06-14T11:25:04.778Z,1.10
2017-06-14T11:27:34.474Z,1.30
2017-06-14T11:30:03.024Z,1.13
2017-06-14T11:32:31.329Z,1.70
2017-06-14T11:34:59.699Z,1.43
2017-06-14T11:37:28.006Z,2.43
2017-06-14T11:39:56.348Z,0.73
2017-06-14T11:42:24.691Z,4.10
2017-06-14T11:44:53.738Z,1.40
2017-06-14T11:47:22.020Z,2.57
2017-06-14T11:49:50.354Z,0.87
2017-06-14T11:52:18.626Z,2.87
2017-06-14T11:54:48.258Z,1.90
2017-06-14T11:57:16.918Z,1.27
2017-06-14T11:59:46.364Z,1.63
2017-06-14T12:02:14.643Z,1.23
2017-06-14T12:04:43.738Z,1.13
2017-06-14T12:07:12.407Z,4.73
2017-06-14T12:09:40.683Z,0.83
2017-06-14T12:12:09.788Z,1.03
2017-06-14T12:14:39.571Z,3.60
2017-06-14T12:17:07.851Z,0.80
2017-06-14T17:52:22.795Z,1.90
2017-06-14T17:54:55.370Z,2.83
2017-06-14T17:57:24.887Z,2.07
2017-06-14T17:59:53.168Z,3.20
2017-06-14T18:02:21.506Z,3.07
2017-06-14T18:04:49.862Z,2.10
2017-06-14T18:07:19.686Z,3.00
2017-06-14T18:09:47.963Z,2.87
2017-06-14T18:12:17.055Z,1.73
2017-06-14T18:14:45.343Z,1.80
2017-06-14T18:17:15.130Z,2.63
2017-06-14T18:19:43.481Z,2.17
2017-06-14T18:22:11.763Z,3.33
2017-06-14T18:24:41.391Z,1.80
2017-06-14T18:27:10.388Z,1.83
2017-06-14T18:29:38.671Z,3.47
2017-06-14T18:32:09.107Z,3.20
2017-06-14T18:34:38.463Z,4.80
2017-06-14T18:37:06.747Z,4.37
2017-06-14T18:39:35.028Z,3.70
2017-06-14T18:42:03.646Z,1.70
2017-06-14T18:44:33.082Z,2.63
2017-06-14T18:47:01.393Z,1.93
2017-06-14T18:49:31.991Z,2.70
2017-06-14T18:52:00.934Z,3.33
2017-06-14T18:54:30.583Z,3.67
2017-06-14T18:56:59.503Z,4.17
2017-06-14T18:59:29.200Z,2.90
2017-06-14T19:01:57.421Z,1.80
2017-06-14T19:04:25.763Z,2.53
2017-06-14T19:06:54.877Z,2.63
2017-06-14T19:09:23.562Z,4.23
2017-06-14T19:11:52.037Z,2.40
2017-06-14T19:14:20.316Z,1.93
2017-06-14T19:16:50.120Z,3.50
2017-06-14T19:19:18.839Z,3.00
2017-06-14T19:21:47.123Z,2.67
2017-06-14T19:24:15.435Z,2.47
2017-06-14T19:26:50.642Z,2.47
2017-06-14T19:29:20.275Z,2.00
2017-06-14T19:31:49.592Z,1.93
2017-06-14T19:34:18.981Z,3.83
2017-06-14T19:36:48.041Z,7.33
2017-06-14T19:39:17.106Z,2.50
2017-06-14T19:41:46.279Z,2.47
2017-06-14T19:44:15.007Z,2.50
2017-06-14T19:46:43.316Z,3.83
2017-06-14T19:49:13.070Z,15.27
2017-06-14T19:51:41.649Z,6.70
2017-06-14T19:54:09.980Z,3.53
2017-06-14T19:56:38.307Z,3.07
2017-06-14T19:59:06.980Z,3.30
2017-06-14T20:01:36.034Z,3.87
2017-06-14T20:04:05.131Z,3.73
2017-06-14T20:06:34.546Z,2.03
2017-06-14T20:09:02.843Z,4.93
2017-06-14T20:11:31.177Z,5.93
2017-06-14T20:13:59.455Z,2.43
2017-06-14T20:16:27.739Z,5.40
2017-06-14T20:18:56.828Z,2.00
2017-06-14T20:21:25.107Z,2.00
2017-06-14T20:23:53.392Z,1.97
2017-06-14T20:26:21.832Z,3.93
2017-06-14T20:28:50.426Z,3.03
2017-06-14T20:31:21.355Z,1.30
2017-06-14T20:33:49.671Z,4.70
2017-06-14T20:36:18.348Z,2.93
2017-06-14T20:38:46.696Z,3.73
2017-06-14T20:41:15.786Z,4.23
2017-06-14T20:43:44.080Z,3.23
2017-06-14T20:46:12.407Z,4.40
2017-06-14T20:48:40.752Z,3.33
2017-06-14T20:51:09.074Z,8.27
2017-06-14T20:53:38.751Z,4.80
2017-06-14T20:56:07.749Z,4.07
2017-06-14T20:58:37.568Z,3.60
2017-06-14T21:01:05.953Z,4.30
2017-06-14T21:03:35.676Z,3.70
2017-06-14T21:06:05.022Z,4.37
2017-06-14T21:08:33.352Z,6.40
2017-06-14T21:11:03.211Z,5.90
2017-06-14T21:13:31.495Z,4.07
2017-06-14T21:16:03.360Z,4.70
2017-06-14T21:18:31.708Z,7.13
2017-06-14T21:20:59.979Z,6.67
2017-06-14T21:23:28.259Z,7.07
2017-06-14T21:25:56.587Z,3.13
2017-06-14T21:28:26.215Z,5.10
2017-06-14T21:30:54.394Z,4.10
2017-06-14T21:33:22.767Z,4.10
2017-06-14T21:35:51.046Z,5.37
2017-06-14T21:38:19.327Z,4.50
2017-06-14T21:40:48.730Z,4.20
2017-06-14T21:43:17.777Z,4.60
2017-06-14T21:45:47.793Z,4.90
2017-06-14T21:48:18.207Z,4.33
2017-06-14T21:50:47.703Z,3.50
2017-06-14T21:53:17.119Z,3.50
2017-06-14T21:55:45.750Z,3.70
2017-06-14T21:58:15.166Z,3.13
2017-06-14T22:00:43.442Z,4.00
2017-06-14T22:03:12.383Z,4.47
2017-06-14T22:05:42.007Z,3.60
2017-06-14T22:08:10.555Z,4.17
2017-06-14T22:10:39.045Z,6.40
2017-06-14T22:13:08.468Z,6.83
2017-06-14T22:15:37.172Z,7.90
2017-06-14T22:18:05.943Z,3.50
2017-06-14T22:20:34.228Z,3.57
2017-06-14T22:23:03.287Z,4.83
2017-06-14T22:25:32.395Z,3.13
2017-06-14T22:28:01.070Z,4.33
2017-06-14T22:30:30.131Z,3.63
2017-06-14T22:32:58.842Z,3.03
2017-06-14T22:35:27.118Z,3.53
2017-06-14T22:37:55.404Z,2.97
2017-06-14T22:40:25.247Z,3.83
2017-06-14T22:42:53.533Z,3.57
2017-06-14T22:45:21.813Z,4.77
2017-06-14T22:47:50.172Z,7.53
2017-06-14T22:50:18.446Z,4.80
2017-06-14T22:52:48.235Z,2.70
2017-06-14T22:55:16.915Z,9.40
2017-06-14T22:57:46.707Z,3.13
2017-06-14T23:00:16.167Z,4.87
2017-06-14T23:02:45.215Z,3.20
2017-06-14T23:05:14.259Z,2.97
2017-06-14T23:07:43.719Z,3.47
2017-06-14T23:10:13.342Z,4.87
2017-06-14T23:12:42.635Z,3.90
2017-06-14T23:15:13.072Z,4.00
2017-06-14T23:17:41.350Z,4.60
2017-06-14T23:20:09.659Z,4.27
2017-06-14T23:22:39.148Z,5.47
2017-06-14T23:25:08.215Z,4.40
2017-06-14T23:27:37.275Z,3.40
2017-06-14T23:30:05.915Z,4.83
2017-06-14T23:32:34.216Z,3.90
2017-06-14T23:35:02.595Z,5.40
2017-06-14T23:37:31.687Z,4.60
2017-06-14T23:40:01.314Z,4.70
2017-06-14T23:42:29.867Z,4.90
2017-06-14T23:44:58.192Z,4.33
2017-06-14T23:47:27.242Z,4.37
2017-06-14T23:49:56.866Z,5.20
2017-06-14T23:52:26.210Z,6.50
2017-06-14T23:54:54.527Z,4.70
2017-06-14T23:57:23.593Z,5.00
2017-06-14T23:59:53.005Z,4.20
